sensor_id;sensor_type;location;lat;lon;timestamp;temperature;humidity
62575;DHT22;70119;45.638;11.714;2023-07-20T00:00:09;32.50;47.70
62575;DHT22;70119;45.638;11.714;2023-07-20T00:02:39;32.50;47.70
62575;DHT22;70119;45.638;11.714;2023-07-20T00:05:05;32.50;47.70
62575;DHT22;70119;45.638;11.714;2023-07-20T00:07:31;32.50;47.70
62575;DHT22;70119;45.638;11.714;2023-07-20T00:09:57;32.50;47.70
62575;DHT22;70119;45.638;11.714;2023-07-20T00:12:23;32.50;47.80
62575;DHT22;70119;45.638;11.714;2023-07-20T00:14:49;32.50;47.80
62575;DHT22;70119;45.638;11.714;2023-07-20T00:17:15;32.50;47.70
62575;DHT22;70119;45.638;11.714;2023-07-20T00:19:40;32.50;47.70
62575;DHT22;70119;45.638;11.714;2023-07-20T00:22:06;32.60;47.80
62575;DHT22;70119;45.638;11.714;2023-07-20T00:24:32;32.50;47.90
62575;DHT22;70119;45.638;11.714;2023-07-20T00:26:58;32.50;47.90
62575;DHT22;70119;45.638;11.714;2023-07-20T00:29:24;32.50;47.90
62575;DHT22;70119;45.638;11.714;2023-07-20T00:31:50;32.60;47.90
62575;DHT22;70119;45.638;11.714;2023-07-20T00:34:16;32.50;47.90
62575;DHT22;70119;45.638;11.714;2023-07-20T00:36:41;32.60;47.90
62575;DHT22;70119;45.638;11.714;2023-07-20T00:39:08;32.60;47.80
62575;DHT22;70119;45.638;11.714;2023-07-20T00:41:34;32.60;47.70
62575;DHT22;70119;45.638;11.714;2023-07-20T00:44:00;32.60;47.60
62575;DHT22;70119;45.638;11.714;2023-07-20T00:46:25;32.60;47.50
62575;DHT22;70119;45.638;11.714;2023-07-20T00:48:52;32.60;47.40
62575;DHT22;70119;45.638;11.714;2023-07-20T00:51:19;32.60;47.50
62575;DHT22;70119;45.638;11.714;2023-07-20T00:53:45;32.60;47.50
62575;DHT22;70119;45.638;11.714;2023-07-20T00:56:12;32.60;47.50
62575;DHT22;70119;45.638;11.714;2023-07-20T00:58:38;32.60;47.60
62575;DHT22;70119;45.638;11.714;2023-07-20T01:01:04;32.60;47.60
62575;DHT22;70119;45.638;11.714;2023-07-20T01:03:30;32.60;47.70
62575;DHT22;70119;45.638;11.714;2023-07-20T01:08:43;32.50;47.70
62575;DHT22;70119;45.638;11.714;2023-07-20T01:11:43;32.60;47.70
62575;DHT22;70119;45.638;11.714;2023-07-20T01:14:10;32.60;47.80
62575;DHT22;70119;45.638;11.714;2023-07-20T01:16:37;32.50;47.70
62575;DHT22;70119;45.638;11.714;2023-07-20T01:19:03;32.60;47.80
62575;DHT22;70119;45.638;11.714;2023-07-20T01:21:37;32.50;47.80
62575;DHT22;70119;45.638;11.714;2023-07-20T01:25:18;32.50;47.80
62575;DHT22;70119;45.638;11.714;2023-07-20T01:30:54;32.60;47.80
62575;DHT22;70119;45.638;11.714;2023-07-20T01:33:00;32.60;47.90
62575;DHT22;70119;45.638;11.714;2023-07-20T01:35:28;32.50;48.00
62575;DHT22;70119;45.638;11.714;2023-07-20T01:37:55;32.50;47.90
62575;DHT22;70119;45.638;11.714;2023-07-20T01:40:22;32.50;48.00
62575;DHT22;70119;45.638;11.714;2023-07-20T01:42:49;32.50;48.10
62575;DHT22;70119;45.638;11.714;2023-07-20T01:45:15;32.50;48.10
62575;DHT22;70119;45.638;11.714;2023-07-20T01:47:42;32.50;48.00
62575;DHT22;70119;45.638;11.714;2023-07-20T01:50:08;32.50;48.00
62575;DHT22;70119;45.638;11.714;2023-07-20T01:52:34;32.50;47.90
62575;DHT22;70119;45.638;11.714;2023-07-20T01:55:00;32.50;48.00
62575;DHT22;70119;45.638;11.714;2023-07-20T01:57:26;32.50;47.90
62575;DHT22;70119;45.638;11.714;2023-07-20T01:59:52;32.60;47.90
62575;DHT22;70119;45.638;11.714;2023-07-20T02:02:18;32.60;47.90
62575;DHT22;70119;45.638;11.714;2023-07-20T02:04:44;32.60;47.80
62575;DHT22;70119;45.638;11.714;2023-07-20T02:07:10;32.50;47.80
62575;DHT22;70119;45.638;11.714;2023-07-20T02:09:35;32.60;47.80
62575;DHT22;70119;45.638;11.714;2023-07-20T02:12:02;32.50;47.80
62575;DHT22;70119;45.638;11.714;2023-07-20T02:14:28;32.50;47.80
62575;DHT22;70119;45.638;11.714;2023-07-20T02:16:54;32.60;47.80
62575;DHT22;70119;45.638;11.714;2023-07-20T02:19:25;32.50;47.80
62575;DHT22;70119;45.638;11.714;2023-07-20T02:21:52;32.50;47.90
62575;DHT22;70119;45.638;11.714;2023-07-20T02:24:18;32.50;48.00
62575;DHT22;70119;45.638;11.714;2023-07-20T02:26:44;32.50;48.00
62575;DHT22;70119;45.638;11.714;2023-07-20T02:29:10;32.50;48.00
62575;DHT22;70119;45.638;11.714;2023-07-20T02:31:39;32.50;48.00
62575;DHT22;70119;45.638;11.714;2023-07-20T02:34:06;32.50;47.90
62575;DHT22;70119;45.638;11.714;2023-07-20T02:36:32;32.50;47.90
62575;DHT22;70119;45.638;11.714;2023-07-20T02:38:58;32.50;47.70
62575;DHT22;70119;45.638;11.714;2023-07-20T02:41:25;32.50;47.70
62575;DHT22;70119;45.638;11.714;2023-07-20T02:43:50;32.50;47.70
62575;DHT22;70119;45.638;11.714;2023-07-20T02:46:16;32.50;47.70
62575;DHT22;70119;45.638;11.714;2023-07-20T02:48:42;32.50;47.70
62575;DHT22;70119;45.638;11.714;2023-07-20T02:51:08;32.40;47.70
62575;DHT22;70119;45.638;11.714;2023-07-20T02:53:35;32.50;47.80
62575;DHT22;70119;45.638;11.714;2023-07-20T02:56:01;32.50;47.80
62575;DHT22;70119;45.638;11.714;2023-07-20T02:58:27;32.40;47.90
62575;DHT22;70119;45.638;11.714;2023-07-20T03:00:52;32.40;47.90
62575;DHT22;70119;45.638;11.714;2023-07-20T03:03:18;32.40;47.90
62575;DHT22;70119;45.638;11.714;2023-07-20T03:05:45;32.40;47.90
62575;DHT22;70119;45.638;11.714;2023-07-20T03:08:11;32.40;47.90
62575;DHT22;70119;45.638;11.714;2023-07-20T03:10:40;32.40;47.80
62575;DHT22;70119;45.638;11.714;2023-07-20T03:13:07;32.40;47.80
62575;DHT22;70119;45.638;11.714;2023-07-20T03:15:34;32.40;47.80
62575;DHT22;70119;45.638;11.714;2023-07-20T03:18:00;32.40;47.80
62575;DHT22;70119;45.638;11.714;2023-07-20T03:20:25;32.40;47.80
62575;DHT22;70119;45.638;11.714;2023-07-20T03:22:51;32.40;47.80
62575;DHT22;70119;45.638;11.714;2023-07-20T03:25:17;32.40;47.70
62575;DHT22;70119;45.638;11.714;2023-07-20T03:27:43;32.40;47.70
62575;DHT22;70119;45.638;11.714;2023-07-20T03:30:10;32.40;47.70
62575;DHT22;70119;45.638;11.714;2023-07-20T03:32:36;32.30;47.70
62575;DHT22;70119;45.638;11.714;2023-07-20T03:35:02;32.30;47.70
62575;DHT22;70119;45.638;11.714;2023-07-20T03:37:28;32.30;47.70
62575;DHT22;70119;45.638;11.714;2023-07-20T03:39:54;32.30;47.70
62575;DHT22;70119;45.638;11.714;2023-07-20T03:42:20;32.30;47.70
62575;DHT22;70119;45.638;11.714;2023-07-20T03:44:46;32.30;47.70
62575;DHT22;70119;45.638;11.714;2023-07-20T03:47:12;32.30;47.70
62575;DHT22;70119;45.638;11.714;2023-07-20T03:49:38;32.40;47.60
62575;DHT22;70119;45.638;11.714;2023-07-20T03:52:04;32.40;47.50
62575;DHT22;70119;45.638;11.714;2023-07-20T03:54:30;32.40;47.50
62575;DHT22;70119;45.638;11.714;2023-07-20T03:56:55;32.40;47.50
62575;DHT22;70119;45.638;11.714;2023-07-20T03:59:21;32.40;47.50
62575;DHT22;70119;45.638;11.714;2023-07-20T04:01:47;32.30;47.50
62575;DHT22;70119;45.638;11.714;2023-07-20T04:04:16;32.30;47.50
62575;DHT22;70119;45.638;11.714;2023-07-20T04:06:42;32.30;47.50
62575;DHT22;70119;45.638;11.714;2023-07-20T04:09:11;32.30;47.60
62575;DHT22;70119;45.638;11.714;2023-07-20T04:11:36;31.70;48.50
62575;DHT22;70119;45.638;11.714;2023-07-20T04:14:02;31.70;48.90
62575;DHT22;70119;45.638;11.714;2023-07-20T04:16:28;31.90;48.40
62575;DHT22;70119;45.638;11.714;2023-07-20T04:18:57;32.00;48.20
62575;DHT22;70119;45.638;11.714;2023-07-20T04:21:25;31.60;48.00
62575;DHT22;70119;45.638;11.714;2023-07-20T04:23:51;30.30;51.30
62575;DHT22;70119;45.638;11.714;2023-07-20T04:26:17;29.90;52.40
62575;DHT22;70119;45.638;11.714;2023-07-20T04:28:43;29.90;52.60
62575;DHT22;70119;45.638;11.714;2023-07-20T04:31:13;29.70;53.40
62575;DHT22;70119;45.638;11.714;2023-07-20T04:33:39;29.20;54.90
62575;DHT22;70119;45.638;11.714;2023-07-20T04:36:06;29.00;55.20
62575;DHT22;70119;45.638;11.714;2023-07-20T04:38:33;28.70;55.60
62575;DHT22;70119;45.638;11.714;2023-07-20T04:40:59;28.50;56.50
62575;DHT22;70119;45.638;11.714;2023-07-20T04:43:25;28.90;55.20
62575;DHT22;70119;45.638;11.714;2023-07-20T04:45:51;29.60;53.90
62575;DHT22;70119;45.638;11.714;2023-07-20T04:48:17;30.00;53.00
62575;DHT22;70119;45.638;11.714;2023-07-20T04:50:45;30.00;53.50
62575;DHT22;70119;45.638;11.714;2023-07-20T04:53:11;29.60;54.00
62575;DHT22;70119;45.638;11.714;2023-07-20T04:55:46;29.50;54.60
62575;DHT22;70119;45.638;11.714;2023-07-20T04:58:15;29.80;53.80
62575;DHT22;70119;45.638;11.714;2023-07-20T05:00:42;30.00;53.40
62575;DHT22;70119;45.638;11.714;2023-07-20T05:03:08;30.20;53.60
62575;DHT22;70119;45.638;11.714;2023-07-20T05:05:34;30.10;53.90
62575;DHT22;70119;45.638;11.714;2023-07-20T05:08:00;30.10;53.70
62575;DHT22;70119;45.638;11.714;2023-07-20T05:10:25;30.40;52.60
62575;DHT22;70119;45.638;11.714;2023-07-20T05:12:51;30.60;51.80
62575;DHT22;70119;45.638;11.714;2023-07-20T05:15:17;30.80;51.20
62575;DHT22;70119;45.638;11.714;2023-07-20T05:17:44;30.90;51.00
62575;DHT22;70119;45.638;11.714;2023-07-20T05:20:10;31.10;50.80
62575;DHT22;70119;45.638;11.714;2023-07-20T05:22:36;31.10;50.70
62575;DHT22;70119;45.638;11.714;2023-07-20T05:25:07;31.20;50.70
62575;DHT22;70119;45.638;11.714;2023-07-20T05:27:34;31.20;50.50
62575;DHT22;70119;45.638;11.714;2023-07-20T05:30:00;31.30;50.40
62575;DHT22;70119;45.638;11.714;2023-07-20T05:32:26;31.40;50.30
62575;DHT22;70119;45.638;11.714;2023-07-20T05:34:53;31.40;50.20
62575;DHT22;70119;45.638;11.714;2023-07-20T05:37:20;31.50;50.00
62575;DHT22;70119;45.638;11.714;2023-07-20T05:39:46;31.50;49.80
62575;DHT22;70119;45.638;11.714;2023-07-20T05:42:11;31.50;49.60
62575;DHT22;70119;45.638;11.714;2023-07-20T05:44:41;31.50;49.60
62575;DHT22;70119;45.638;11.714;2023-07-20T05:47:12;31.40;49.20
62575;DHT22;70119;45.638;11.714;2023-07-20T05:49:38;31.40;49.70
62575;DHT22;70119;45.638;11.714;2023-07-20T05:52:04;31.00;49.90
62575;DHT22;70119;45.638;11.714;2023-07-20T05:54:30;31.00;50.30
62575;DHT22;70119;45.638;11.714;2023-07-20T05:56:55;31.10;50.30
62575;DHT22;70119;45.638;11.714;2023-07-20T05:59:21;31.10;50.40
62575;DHT22;70119;45.638;11.714;2023-07-20T06:01:49;31.10;50.40
62575;DHT22;70119;45.638;11.714;2023-07-20T06:04:15;31.30;50.20
62575;DHT22;70119;45.638;11.714;2023-07-20T06:06:41;31.40;50.20
62575;DHT22;70119;45.638;11.714;2023-07-20T06:09:07;31.30;50.10
62575;DHT22;70119;45.638;11.714;2023-07-20T06:11:38;31.40;50.00
62575;DHT22;70119;45.638;11.714;2023-07-20T06:14:04;31.50;49.70
62575;DHT22;70119;45.638;11.714;2023-07-20T06:16:30;31.50;49.70
62575;DHT22;70119;45.638;11.714;2023-07-20T06:18:55;31.60;49.40
62575;DHT22;70119;45.638;11.714;2023-07-20T06:21:22;31.60;49.20
62575;DHT22;70119;45.638;11.714;2023-07-20T06:23:48;31.70;48.80
62575;DHT22;70119;45.638;11.714;2023-07-20T06:26:13;31.70;48.60
62575;DHT22;70119;45.638;11.714;2023-07-20T06:28:39;31.80;48.40
62575;DHT22;70119;45.638;11.714;2023-07-20T06:31:06;31.80;48.40
62575;DHT22;70119;45.638;11.714;2023-07-20T06:33:33;31.80;48.60
62575;DHT22;70119;45.638;11.714;2023-07-20T06:36:00;31.90;48.60
62575;DHT22;70119;45.638;11.714;2023-07-20T06:38:26;31.90;48.60
62575;DHT22;70119;45.638;11.714;2023-07-20T06:40:52;31.90;48.60
62575;DHT22;70119;45.638;11.714;2023-07-20T06:43:18;32.00;48.50
62575;DHT22;70119;45.638;11.714;2023-07-20T06:45:44;32.00;48.70
62575;DHT22;70119;45.638;11.714;2023-07-20T06:48:10;32.10;48.70
62575;DHT22;70119;45.638;11.714;2023-07-20T06:50:36;32.10;48.60
62575;DHT22;70119;45.638;11.714;2023-07-20T06:53:01;32.10;48.40
62575;DHT22;70119;45.638;11.714;2023-07-20T06:55:29;32.10;48.40
62575;DHT22;70119;45.638;11.714;2023-07-20T06:57:55;32.10;48.40
62575;DHT22;70119;45.638;11.714;2023-07-20T07:00:21;32.20;48.20
62575;DHT22;70119;45.638;11.714;2023-07-20T07:02:47;32.20;48.10
62575;DHT22;70119;45.638;11.714;2023-07-20T07:05:13;32.20;48.10
62575;DHT22;70119;45.638;11.714;2023-07-20T07:07:40;32.30;47.90
62575;DHT22;70119;45.638;11.714;2023-07-20T07:10:06;32.30;47.80
62575;DHT22;70119;45.638;11.714;2023-07-20T07:12:32;32.30;47.80
62575;DHT22;70119;45.638;11.714;2023-07-20T07:14:58;32.30;47.70
62575;DHT22;70119;45.638;11.714;2023-07-20T07:17:25;32.30;47.70
62575;DHT22;70119;45.638;11.714;2023-07-20T07:19:52;32.30;47.70
62575;DHT22;70119;45.638;11.714;2023-07-20T07:22:20;32.40;47.50
62575;DHT22;70119;45.638;11.714;2023-07-20T07:24:47;32.40;47.50
62575;DHT22;70119;45.638;11.714;2023-07-20T07:27:13;32.40;47.50
62575;DHT22;70119;45.638;11.714;2023-07-20T07:29:42;32.40;48.00
62575;DHT22;70119;45.638;11.714;2023-07-20T07:32:10;32.40;48.30
62575;DHT22;70119;45.638;11.714;2023-07-20T07:34:36;32.50;48.30
62575;DHT22;70119;45.638;11.714;2023-07-20T07:37:03;32.50;48.20
62575;DHT22;70119;45.638;11.714;2023-07-20T07:39:30;32.50;48.40
62575;DHT22;70119;45.638;11.714;2023-07-20T07:41:56;32.50;48.20
62575;DHT22;70119;45.638;11.714;2023-07-20T07:44:22;32.60;48.10
62575;DHT22;70119;45.638;11.714;2023-07-20T07:46:49;32.60;47.90
62575;DHT22;70119;45.638;11.714;2023-07-20T07:49:15;32.60;47.90
62575;DHT22;70119;45.638;11.714;2023-07-20T07:51:41;32.60;48.40
62575;DHT22;70119;45.638;11.714;2023-07-20T07:54:07;32.60;48.70
62575;DHT22;70119;45.638;11.714;2023-07-20T07:56:33;32.60;48.70
62575;DHT22;70119;45.638;11.714;2023-07-20T07:58:59;32.60;48.80
62575;DHT22;70119;45.638;11.714;2023-07-20T08:01:24;32.50;49.40
62575;DHT22;70119;45.638;11.714;2023-07-20T08:03:51;32.10;50.20
62575;DHT22;70119;45.638;11.714;2023-07-20T08:06:17;32.30;50.00
62575;DHT22;70119;45.638;11.714;2023-07-20T08:08:43;32.50;49.50
62575;DHT22;70119;45.638;11.714;2023-07-20T08:11:09;32.60;49.00
62575;DHT22;70119;45.638;11.714;2023-07-20T08:13:35;32.60;48.80
62575;DHT22;70119;45.638;11.714;2023-07-20T08:16:01;32.60;49.20
62575;DHT22;70119;45.638;11.714;2023-07-20T08:18:30;32.60;50.30
62575;DHT22;70119;45.638;11.714;2023-07-20T08:20:56;32.60;49.30
62575;DHT22;70119;45.638;11.714;2023-07-20T08:23:22;32.70;49.10
62575;DHT22;70119;45.638;11.714;2023-07-20T08:25:48;32.70;49.20
62575;DHT22;70119;45.638;11.714;2023-07-20T08:28:15;32.70;48.70
62575;DHT22;70119;45.638;11.714;2023-07-20T08:30:47;32.80;48.50
62575;DHT22;70119;45.638;11.714;2023-07-20T08:33:14;32.90;48.30
62575;DHT22;70119;45.638;11.714;2023-07-20T08:35:40;32.90;48.20
62575;DHT22;70119;45.638;11.714;2023-07-20T08:38:06;32.90;48.20
62575;DHT22;70119;45.638;11.714;2023-07-20T08:40:41;32.90;48.20
62575;DHT22;70119;45.638;11.714;2023-07-20T08:43:10;32.90;48.10
62575;DHT22;70119;45.638;11.714;2023-07-20T08:45:41;32.90;48.10
62575;DHT22;70119;45.638;11.714;2023-07-20T08:48:10;32.90;48.00
62575;DHT22;70119;45.638;11.714;2023-07-20T08:50:38;32.90;47.90
62575;DHT22;70119;45.638;11.714;2023-07-20T08:53:10;32.90;47.90
62575;DHT22;70119;45.638;11.714;2023-07-20T08:55:38;32.90;47.90
62575;DHT22;70119;45.638;11.714;2023-07-20T08:58:08;33.00;47.80
62575;DHT22;70119;45.638;11.714;2023-07-20T09:00:36;32.90;47.80
62575;DHT22;70119;45.638;11.714;2023-07-20T09:03:03;32.90;47.80
62575;DHT22;70119;45.638;11.714;2023-07-20T09:05:29;33.00;47.70
62575;DHT22;70119;45.638;11.714;2023-07-20T09:07:55;33.00;47.70
62575;DHT22;70119;45.638;11.714;2023-07-20T09:10:22;33.00;47.70
62575;DHT22;70119;45.638;11.714;2023-07-20T09:12:48;33.00;47.70
62575;DHT22;70119;45.638;11.714;2023-07-20T09:15:15;33.10;47.60
62575;DHT22;70119;45.638;11.714;2023-07-20T09:17:48;33.00;47.60
62575;DHT22;70119;45.638;11.714;2023-07-20T09:20:19;33.00;47.60
62575;DHT22;70119;45.638;11.714;2023-07-20T09:22:46;33.00;47.60
62575;DHT22;70119;45.638;11.714;2023-07-20T09:25:19;33.00;47.50
62575;DHT22;70119;45.638;11.714;2023-07-20T09:27:47;33.00;47.60
62575;DHT22;70119;45.638;11.714;2023-07-20T09:30:15;33.10;47.50
62575;DHT22;70119;45.638;11.714;2023-07-20T09:32:49;33.00;47.40
62575;DHT22;70119;45.638;11.714;2023-07-20T09:35:22;33.00;47.40
62575;DHT22;70119;45.638;11.714;2023-07-20T09:37:55;33.10;47.30
62575;DHT22;70119;45.638;11.714;2023-07-20T09:40:23;33.10;47.30
62575;DHT22;70119;45.638;11.714;2023-07-20T09:42:52;33.10;47.30
62575;DHT22;70119;45.638;11.714;2023-07-20T09:45:19;33.10;47.20
62575;DHT22;70119;45.638;11.714;2023-07-20T09:47:45;33.10;47.20
62575;DHT22;70119;45.638;11.714;2023-07-20T09:50:11;33.10;47.10
62575;DHT22;70119;45.638;11.714;2023-07-20T09:52:42;33.10;47.10
62575;DHT22;70119;45.638;11.714;2023-07-20T09:55:14;33.10;47.00
62575;DHT22;70119;45.638;11.714;2023-07-20T09:57:45;33.10;47.00
62575;DHT22;70119;45.638;11.714;2023-07-20T10:00:11;33.10;47.00
62575;DHT22;70119;45.638;11.714;2023-07-20T10:02:46;33.10;47.00
62575;DHT22;70119;45.638;11.714;2023-07-20T10:05:14;33.10;46.90
62575;DHT22;70119;45.638;11.714;2023-07-20T10:07:49;33.10;46.90
62575;DHT22;70119;45.638;11.714;2023-07-20T10:10:17;33.10;46.90
62575;DHT22;70119;45.638;11.714;2023-07-20T10:12:48;33.10;46.80
62575;DHT22;70119;45.638;11.714;2023-07-20T10:20:19;33.10;46.80
62575;DHT22;70119;45.638;11.714;2023-07-20T10:22:48;33.10;46.80
62575;DHT22;70119;45.638;11.714;2023-07-20T10:25:16;33.10;46.80
62575;DHT22;70119;45.638;11.714;2023-07-20T10:27:49;33.10;46.80
62575;DHT22;70119;45.638;11.714;2023-07-20T10:30:21;33.10;46.70
62575;DHT22;70119;45.638;11.714;2023-07-20T10:32:48;33.10;46.70
62575;DHT22;70119;45.638;11.714;2023-07-20T10:35:16;33.20;46.70
62575;DHT22;70119;45.638;11.714;2023-07-20T10:38:03;33.20;46.70
62575;DHT22;70119;45.638;11.714;2023-07-20T10:40:38;33.20;46.50
62575;DHT22;70119;45.638;11.714;2023-07-20T10:43:19;33.20;46.60
62575;DHT22;70119;45.638;11.714;2023-07-20T10:45:57;33.20;46.50
62575;DHT22;70119;45.638;11.714;2023-07-20T10:48:32;33.20;46.50
62575;DHT22;70119;45.638;11.714;2023-07-20T10:51:24;33.20;46.50
62575;DHT22;70119;45.638;11.714;2023-07-20T10:54:02;33.20;46.30
62575;DHT22;70119;45.638;11.714;2023-07-20T10:56:28;33.20;46.40
62575;DHT22;70119;45.638;11.714;2023-07-20T10:59:01;33.10;46.40
62575;DHT22;70119;45.638;11.714;2023-07-20T11:01:44;33.20;46.40
62575;DHT22;70119;45.638;11.714;2023-07-20T11:04:10;33.20;46.40
62575;DHT22;70119;45.638;11.714;2023-07-20T11:06:36;33.20;46.40
62575;DHT22;70119;45.638;11.714;2023-07-20T11:09:07;33.20;46.40
62575;DHT22;70119;45.638;11.714;2023-07-20T11:11:37;33.20;46.30
62575;DHT22;70119;45.638;11.714;2023-07-20T11:14:06;33.20;46.30
62575;DHT22;70119;45.638;11.714;2023-07-20T11:16:46;33.20;46.30
62575;DHT22;70119;45.638;11.714;2023-07-20T11:19:17;33.20;46.20
62575;DHT22;70119;45.638;11.714;2023-07-20T11:21:46;33.20;46.20
62575;DHT22;70119;45.638;11.714;2023-07-20T11:24:12;33.20;46.20
62575;DHT22;70119;45.638;11.714;2023-07-20T11:26:50;33.20;46.20
62575;DHT22;70119;45.638;11.714;2023-07-20T11:29:17;33.20;46.20
62575;DHT22;70119;45.638;11.714;2023-07-20T11:31:44;33.20;46.20
62575;DHT22;70119;45.638;11.714;2023-07-20T11:34:12;33.20;46.20
62575;DHT22;70119;45.638;11.714;2023-07-20T11:36:42;33.20;46.20
62575;DHT22;70119;45.638;11.714;2023-07-20T11:39:09;33.20;46.10
62575;DHT22;70119;45.638;11.714;2023-07-20T11:41:35;33.30;46.20
62575;DHT22;70119;45.638;11.714;2023-07-20T11:44:02;33.20;46.10
62575;DHT22;70119;45.638;11.714;2023-07-20T11:46:31;33.20;46.00
62575;DHT22;70119;45.638;11.714;2023-07-20T11:48:58;33.30;46.10
62575;DHT22;70119;45.638;11.714;2023-07-20T11:51:30;33.20;46.00
62575;DHT22;70119;45.638;11.714;2023-07-20T11:53:57;33.30;46.00
62575;DHT22;70119;45.638;11.714;2023-07-20T11:56:26;33.30;46.00
62575;DHT22;70119;45.638;11.714;2023-07-20T11:58:55;33.30;45.90
62575;DHT22;70119;45.638;11.714;2023-07-20T12:01:23;33.30;45.90
62575;DHT22;70119;45.638;11.714;2023-07-20T12:03:49;33.30;45.90
62575;DHT22;70119;45.638;11.714;2023-07-20T12:06:16;33.30;46.00
62575;DHT22;70119;45.638;11.714;2023-07-20T12:08:45;33.30;45.90
62575;DHT22;70119;45.638;11.714;2023-07-20T12:11:12;33.30;45.90
62575;DHT22;70119;45.638;11.714;2023-07-20T12:13:42;33.30;45.90
62575;DHT22;70119;45.638;11.714;2023-07-20T12:16:16;33.30;46.00
62575;DHT22;70119;45.638;11.714;2023-07-20T12:18:43;33.30;46.00
62575;DHT22;70119;45.638;11.714;2023-07-20T12:21:10;33.30;46.00
62575;DHT22;70119;45.638;11.714;2023-07-20T12:23:40;33.30;46.00
62575;DHT22;70119;45.638;11.714;2023-07-20T12:26:08;33.30;46.10
62575;DHT22;70119;45.638;11.714;2023-07-20T12:28:42;33.30;46.10
62575;DHT22;70119;45.638;11.714;2023-07-20T12:31:09;33.30;46.00
62575;DHT22;70119;45.638;11.714;2023-07-20T12:33:37;33.30;46.00
62575;DHT22;70119;45.638;11.714;2023-07-20T12:36:04;33.30;46.00
62575;DHT22;70119;45.638;11.714;2023-07-20T12:38:30;33.40;46.00
62575;DHT22;70119;45.638;11.714;2023-07-20T12:40:57;33.30;46.00
62575;DHT22;70119;45.638;11.714;2023-07-20T12:43:24;33.40;46.00
62575;DHT22;70119;45.638;11.714;2023-07-20T12:45:50;33.30;46.00
62575;DHT22;70119;45.638;11.714;2023-07-20T12:48:16;33.40;46.00
62575;DHT22;70119;45.638;11.714;2023-07-20T12:50:43;33.40;45.90
62575;DHT22;70119;45.638;11.714;2023-07-20T12:53:09;33.40;45.90
62575;DHT22;70119;45.638;11.714;2023-07-20T12:55:35;33.40;45.90
62575;DHT22;70119;45.638;11.714;2023-07-20T12:58:01;33.30;45.90
62575;DHT22;70119;45.638;11.714;2023-07-20T13:00:27;33.40;45.90
62575;DHT22;70119;45.638;11.714;2023-07-20T13:02:53;33.30;45.90
62575;DHT22;70119;45.638;11.714;2023-07-20T13:05:20;33.40;45.90
62575;DHT22;70119;45.638;11.714;2023-07-20T13:07:46;33.40;45.80
62575;DHT22;70119;45.638;11.714;2023-07-20T13:10:12;33.30;45.80
62575;DHT22;70119;45.638;11.714;2023-07-20T13:12:38;33.40;45.90
62575;DHT22;70119;45.638;11.714;2023-07-20T13:15:06;33.40;45.90
62575;DHT22;70119;45.638;11.714;2023-07-20T13:17:38;33.40;45.80
62575;DHT22;70119;45.638;11.714;2023-07-20T13:20:09;33.40;45.80
62575;DHT22;70119;45.638;11.714;2023-07-20T13:22:37;33.40;45.70
62575;DHT22;70119;45.638;11.714;2023-07-20T13:25:04;33.50;45.70
62575;DHT22;70119;45.638;11.714;2023-07-20T13:27:30;33.40;45.70
62575;DHT22;70119;45.638;11.714;2023-07-20T13:29:58;33.40;45.80
62575;DHT22;70119;45.638;11.714;2023-07-20T13:32:24;33.40;45.70
62575;DHT22;70119;45.638;11.714;2023-07-20T13:34:50;33.50;45.70
62575;DHT22;70119;45.638;11.714;2023-07-20T13:37:16;33.40;45.70
62575;DHT22;70119;45.638;11.714;2023-07-20T13:39:43;33.50;45.70
62575;DHT22;70119;45.638;11.714;2023-07-20T13:42:09;33.50;45.60
62575;DHT22;70119;45.638;11.714;2023-07-20T13:44:37;33.50;45.60
62575;DHT22;70119;45.638;11.714;2023-07-20T13:47:04;33.50;45.70
62575;DHT22;70119;45.638;11.714;2023-07-20T13:49:31;33.50;45.70
62575;DHT22;70119;45.638;11.714;2023-07-20T13:51:58;33.50;45.70
62575;DHT22;70119;45.638;11.714;2023-07-20T13:54:25;33.50;45.60
62575;DHT22;70119;45.638;11.714;2023-07-20T13:56:51;33.50;45.60
62575;DHT22;70119;45.638;11.714;2023-07-20T13:59:18;33.50;45.60
62575;DHT22;70119;45.638;11.714;2023-07-20T14:01:44;33.50;45.70
62575;DHT22;70119;45.638;11.714;2023-07-20T14:04:10;33.50;45.60
62575;DHT22;70119;45.638;11.714;2023-07-20T14:06:36;33.50;45.60
62575;DHT22;70119;45.638;11.714;2023-07-20T14:09:02;33.50;45.60
62575;DHT22;70119;45.638;11.714;2023-07-20T14:11:29;33.50;45.70
62575;DHT22;70119;45.638;11.714;2023-07-20T14:13:55;33.60;45.60
62575;DHT22;70119;45.638;11.714;2023-07-20T14:16:23;33.60;45.00
62575;DHT22;70119;45.638;11.714;2023-07-20T14:18:50;33.50;44.60
62575;DHT22;70119;45.638;11.714;2023-07-20T14:21:18;33.50;44.30
62575;DHT22;70119;45.638;11.714;2023-07-20T14:23:48;33.50;44.10
62575;DHT22;70119;45.638;11.714;2023-07-20T14:26:15;33.30;44.00
62575;DHT22;70119;45.638;11.714;2023-07-20T14:28:41;33.30;44.00
62575;DHT22;70119;45.638;11.714;2023-07-20T14:31:07;33.20;44.10
62575;DHT22;70119;45.638;11.714;2023-07-20T14:33:33;33.20;44.00
62575;DHT22;70119;45.638;11.714;2023-07-20T14:35:59;33.10;43.80
62575;DHT22;70119;45.638;11.714;2023-07-20T14:38:28;33.10;43.90
62575;DHT22;70119;45.638;11.714;2023-07-20T14:40:54;33.10;43.90
62575;DHT22;70119;45.638;11.714;2023-07-20T14:43:20;33.10;43.80
62575;DHT22;70119;45.638;11.714;2023-07-20T14:45:46;33.10;43.70
62575;DHT22;70119;45.638;11.714;2023-07-20T14:48:12;33.10;43.70
62575;DHT22;70119;45.638;11.714;2023-07-20T14:50:38;33.10;43.70
62575;DHT22;70119;45.638;11.714;2023-07-20T14:53:04;33.00;43.60
62575;DHT22;70119;45.638;11.714;2023-07-20T14:55:30;33.00;43.60
62575;DHT22;70119;45.638;11.714;2023-07-20T14:57:56;33.00;43.60
62575;DHT22;70119;45.638;11.714;2023-07-20T15:00:22;33.00;43.50
62575;DHT22;70119;45.638;11.714;2023-07-20T15:02:48;33.00;43.40
62575;DHT22;70119;45.638;11.714;2023-07-20T15:05:21;32.90;43.40
62575;DHT22;70119;45.638;11.714;2023-07-20T15:07:47;32.90;43.30
62575;DHT22;70119;45.638;11.714;2023-07-20T15:10:13;32.90;43.30
62575;DHT22;70119;45.638;11.714;2023-07-20T15:12:39;32.90;43.20
62575;DHT22;70119;45.638;11.714;2023-07-20T15:15:10;32.90;43.10
62575;DHT22;70119;45.638;11.714;2023-07-20T15:17:37;32.90;42.90
62575;DHT22;70119;45.638;11.714;2023-07-20T15:20:04;32.90;43.10
62575;DHT22;70119;45.638;11.714;2023-07-20T15:22:31;32.80;43.20
62575;DHT22;70119;45.638;11.714;2023-07-20T15:24:57;32.90;43.10
62575;DHT22;70119;45.638;11.714;2023-07-20T15:27:23;32.80;43.20